< < Back
Terminal Aerodrome Forecast


Current Version              Previous Versions:   1  2  3  4  5  6  7  8  9  

Terminal Aerodrome Forecast

804
FTUS42 KGSP 271120
TAFHKY
TAF
KHKY 271120Z 2712/2812 32003KT P6SM BKN045
      TEMPO 2714/2718 SCT045
     FM272300 36003KT P6SM SCT040
     FM280300 02003KT P6SM BKN040=

Latest METAR

129
SAUS70 KWBC 271556
MTRHKY
METAR KHKY 271553Z 00000KT 10SM BKN040 04/M05 A3035 RMK AO2 SLP275
T00391050


USA.gov is the U.S. government's official web portal to all federal, state and local government web resources and services.